»·PEaware :: N208CJ KSNA-KBUR

N208CJ :: KSNA-KBUR

FLIGHT INFORMATION

Flight Status: Arrived
Operator: Privately registered:
United States
More flights under this callsign
Pilot: Christopher J. (304)
Aircraft: CESSNA 208 CARAVAN
(C208)
More flights by this aircraft type
Origin: KSNA John Wayne-Orange Co
United States
Destination: KBUR Bob Hope-Burbank
United States
More flights between these airports :: More routes between these airports
Route: +SLI V23 POPPR SMO125 SMO SMO311 SILEX
File this flight plan on PilotEdge
Remarks:
Altitude:
(Current/Filed)
6,000ft
Speed:
(Current/Filed)
140kts
Departed: 19-Jan-19 05:01 PM
Arrived: 19-Jan-19 05:47 PM
Distance/Time
Traveled:
40nm/0:45
Distance/Time
To Go:
Arrived

Flight Plot

Page will automatically refresh every two minutes.


Map Options




Map Legend


Flown Route
Filed Route
Departure Airport
Arrival Airport
Navaid (VOR, NDB)
Fix

Horizontal Profiles

Position Reports

Time Latitude Longitude Heading Altitude Ground
Speed
19-Jan-19 16:40 33.676095 -117.870894 219 61ft 0kts
19-Jan-19 16:41 33.676095 -117.870894 219 61ft 0kts
19-Jan-19 16:42 33.676095 -117.870894 219 61ft 0kts
19-Jan-19 16:43 33.676095 -117.870894 219 61ft 0kts
19-Jan-19 16:44 33.676095 -117.870894 219 61ft 0kts
19-Jan-19 16:45 33.676095 -117.870894 219 61ft 0kts
19-Jan-19 16:46 33.676095 -117.870894 219 61ft 0kts
19-Jan-19 16:47 33.676095 -117.870894 219 61ft 0kts
19-Jan-19 16:48 33.676095 -117.870894 219 61ft 0kts
19-Jan-19 16:49 33.676095 -117.870894 219 61ft 0kts
19-Jan-19 16:50 33.676095 -117.870894 219 61ft 0kts
19-Jan-19 16:51 33.676095 -117.870894 219 61ft 0kts
19-Jan-19 16:52 33.675894 -117.870776 133 61ft 8kts
19-Jan-19 16:53 33.677801 -117.869005 28 61ft 9kts
19-Jan-19 16:54 33.680443 -117.867492 27 61ft 12kts
19-Jan-19 16:55 33.681218 -117.866562 99 61ft 0kts
19-Jan-19 16:56 33.681218 -117.866561 99 61ft 0kts
19-Jan-19 16:57 33.681218 -117.866561 99 61ft 0kts
19-Jan-19 16:58 33.681218 -117.866561 99 61ft 0kts
19-Jan-19 16:59 33.681218 -117.866561 99 61ft 0kts
19-Jan-19 17:00 33.677288 -117.867819 207 62ft 89kts
19-Jan-19 17:01 33.654065 -117.890683 237 1446ft 141kts
19-Jan-19 17:02 33.633993 -117.926417 234 1406ft 133kts
19-Jan-19 17:03 33.612187 -117.964320 237 1958ft 138kts
19-Jan-19 17:04 33.591866 -118.000596 235 1790ft 119kts
19-Jan-19 17:05 33.573036 -118.033066 233 1922ft 135kts
19-Jan-19 17:06 33.555779 -118.067148 310 2004ft 141kts
19-Jan-19 17:07 33.591645 -118.078840 13 2950ft 131kts
19-Jan-19 17:08 33.622163 -118.067650 15 3329ft 107kts
19-Jan-19 17:09 33.651195 -118.057136 15 3616ft 118kts
19-Jan-19 17:10 33.686548 -118.044163 15 4013ft 143kts
19-Jan-19 17:11 33.718665 -118.032543 15 4015ft 118kts
19-Jan-19 17:12 33.752440 -118.026163 352 4014ft 128kts
19-Jan-19 17:13 33.770712 -118.057168 281 4013ft 130kts
19-Jan-19 17:14 33.781846 -118.098863 288 4013ft 130kts
19-Jan-19 17:15 33.793112 -118.140219 289 4016ft 129kts
19-Jan-19 17:16 33.804261 -118.181538 289 3978ft 128kts
19-Jan-19 17:17 33.815184 -118.222074 289 3982ft 126kts
19-Jan-19 17:18 33.826106 -118.261969 289 3985ft 124kts
19-Jan-19 17:19 33.839351 -118.299770 330 3996ft 124kts
19-Jan-19 17:20 33.856049 -118.270658 91 3988ft 139kts
19-Jan-19 17:21 33.854341 -118.224211 91 3983ft 138kts
19-Jan-19 17:22 33.852779 -118.178232 79 3975ft 135kts
19-Jan-19 17:23 33.837562 -118.157109 236 3956ft 131kts
19-Jan-19 17:24 33.839883 -118.198624 281 3979ft 125kts
19-Jan-19 17:25 33.845182 -118.239998 281 3982ft 125kts
19-Jan-19 17:26 33.850623 -118.281078 281 4012ft 122kts
19-Jan-19 17:27 33.860589 -118.319324 321 4026ft 123kts
19-Jan-19 17:28 33.889025 -118.343216 322 4013ft 125kts
19-Jan-19 17:29 33.916666 -118.368888 322 4013ft 125kts
19-Jan-19 17:30 33.944264 -118.394605 323 4014ft 126kts
19-Jan-19 17:31 33.972351 -118.420062 324 4015ft 126kts
19-Jan-19 17:32 33.998256 -118.448706 318 4015ft 126kts
19-Jan-19 17:33 34.025631 -118.475354 327 4016ft 127kts
19-Jan-19 17:34 34.054874 -118.499570 327 4015ft 128kts
19-Jan-19 17:35 34.085071 -118.522686 330 4015ft 128kts
19-Jan-19 17:36 34.115494 -118.545432 330 4016ft 128kts
19-Jan-19 17:37 34.145491 -118.568124 330 4018ft 126kts
19-Jan-19 17:38 34.175176 -118.590647 330 4020ft 125kts
19-Jan-19 17:39 34.205433 -118.606130 29 4034ft 126kts
19-Jan-19 17:40 34.209293 -118.562343 92 3396ft 137kts
19-Jan-19 17:41 34.206478 -118.516645 91 3019ft 123kts
19-Jan-19 17:42 34.204057 -118.475496 91 3026ft 128kts
19-Jan-19 17:43 34.201804 -118.434374 94 2991ft 121kts
19-Jan-19 17:44 34.198746 -118.399159 93 2040ft 93kts
19-Jan-19 17:45 34.197990 -118.369178 88 827ft 78kts
19-Jan-19 17:46 34.196913 -118.360056 119 782ft 4kts
19-Jan-19 17:47 34.195709 -118.358762 107 782ft 2kts
19-Jan-19 17:48 34.195670 -118.358615 108 782ft 0kts

Navigation Log

Ident Type
Flight plan parsing failed, navigation log unavailable